sensor_id;sensor_type;location;lat;lon;timestamp;temperature;humidity
6988;DHT22;3534;49.960;8.018;2024-01-10T00:02:18;1.50;87.20
6988;DHT22;3534;49.960;8.018;2024-01-10T00:04:45;1.50;87.60
6988;DHT22;3534;49.960;8.018;2024-01-10T00:07:12;1.40;86.60
6988;DHT22;3534;49.960;8.018;2024-01-10T00:09:38;1.50;86.30
6988;DHT22;3534;49.960;8.018;2024-01-10T00:12:06;1.50;87.00
6988;DHT22;3534;49.960;8.018;2024-01-10T00:14:32;1.50;87.00
6988;DHT22;3534;49.960;8.018;2024-01-10T00:17:00;1.50;87.50
6988;DHT22;3534;49.960;8.018;2024-01-10T00:19:27;1.30;87.60
6988;DHT22;3534;49.960;8.018;2024-01-10T00:21:54;1.30;87.50
6988;DHT22;3534;49.960;8.018;2024-01-10T00:24:21;1.40;87.40
6988;DHT22;3534;49.960;8.018;2024-01-10T00:26:47;1.40;86.20
6988;DHT22;3534;49.960;8.018;2024-01-10T00:29:14;1.40;85.80
6988;DHT22;3534;49.960;8.018;2024-01-10T00:31:41;1.40;84.90
6988;DHT22;3534;49.960;8.018;2024-01-10T00:34:09;1.40;84.40
6988;DHT22;3534;49.960;8.018;2024-01-10T00:36:35;1.40;84.40
6988;DHT22;3534;49.960;8.018;2024-01-10T00:39:02;1.40;84.30
6988;DHT22;3534;49.960;8.018;2024-01-10T00:41:29;1.50;84.20
6988;DHT22;3534;49.960;8.018;2024-01-10T00:43:55;1.40;84.40
6988;DHT22;3534;49.960;8.018;2024-01-10T00:46:22;1.50;84.40
6988;DHT22;3534;49.960;8.018;2024-01-10T00:48:49;1.50;84.20
6988;DHT22;3534;49.960;8.018;2024-01-10T00:51:17;1.50;84.10
6988;DHT22;3534;49.960;8.018;2024-01-10T00:53:43;1.40;84.40
6988;DHT22;3534;49.960;8.018;2024-01-10T00:56:10;1.50;84.40
6988;DHT22;3534;49.960;8.018;2024-01-10T00:58:37;1.50;84.70
6988;DHT22;3534;49.960;8.018;2024-01-10T01:01:04;1.50;84.70
6988;DHT22;3534;49.960;8.018;2024-01-10T01:03:30;1.50;84.60
6988;DHT22;3534;49.960;8.018;2024-01-10T01:05:57;1.50;85.10
6988;DHT22;3534;49.960;8.018;2024-01-10T01:08:25;1.50;85.10
6988;DHT22;3534;49.960;8.018;2024-01-10T01:10:52;1.50;85.10
6988;DHT22;3534;49.960;8.018;2024-01-10T01:13:18;1.50;85.20
6988;DHT22;3534;49.960;8.018;2024-01-10T01:15:45;1.50;85.60
6988;DHT22;3534;49.960;8.018;2024-01-10T01:18:12;1.50;85.90
6988;DHT22;3534;49.960;8.018;2024-01-10T01:20:38;1.50;86.00
6988;DHT22;3534;49.960;8.018;2024-01-10T01:23:05;1.40;86.20
6988;DHT22;3534;49.960;8.018;2024-01-10T01:25:33;1.40;86.40
6988;DHT22;3534;49.960;8.018;2024-01-10T01:28:00;1.40;87.00
6988;DHT22;3534;49.960;8.018;2024-01-10T01:30:26;1.40;86.80
6988;DHT22;3534;49.960;8.018;2024-01-10T01:32:53;1.40;86.90
6988;DHT22;3534;49.960;8.018;2024-01-10T01:35:20;1.40;86.70
6988;DHT22;3534;49.960;8.018;2024-01-10T01:37:47;1.40;86.70
6988;DHT22;3534;49.960;8.018;2024-01-10T01:40:13;1.40;87.10
6988;DHT22;3534;49.960;8.018;2024-01-10T01:42:43;1.40;87.80
6988;DHT22;3534;49.960;8.018;2024-01-10T01:45:10;1.40;87.50
6988;DHT22;3534;49.960;8.018;2024-01-10T01:47:38;1.40;88.10
6988;DHT22;3534;49.960;8.018;2024-01-10T01:50:06;1.40;88.20
6988;DHT22;3534;49.960;8.018;2024-01-10T01:52:33;1.40;88.00
6988;DHT22;3534;49.960;8.018;2024-01-10T01:55:01;1.40;88.60
6988;DHT22;3534;49.960;8.018;2024-01-10T01:57:28;1.30;89.30
6988;DHT22;3534;49.960;8.018;2024-01-10T01:59:56;1.30;89.50
6988;DHT22;3534;49.960;8.018;2024-01-10T02:02:24;1.30;89.20
6988;DHT22;3534;49.960;8.018;2024-01-10T02:04:50;1.20;89.00
6988;DHT22;3534;49.960;8.018;2024-01-10T02:07:17;1.20;89.10
6988;DHT22;3534;49.960;8.018;2024-01-10T02:09:44;1.20;89.60
6988;DHT22;3534;49.960;8.018;2024-01-10T02:12:11;1.20;89.50
6988;DHT22;3534;49.960;8.018;2024-01-10T02:14:37;1.20;90.00
6988;DHT22;3534;49.960;8.018;2024-01-10T02:17:06;1.20;90.00
6988;DHT22;3534;49.960;8.018;2024-01-10T02:19:33;1.20;90.20
6988;DHT22;3534;49.960;8.018;2024-01-10T02:22:00;1.20;90.30
6988;DHT22;3534;49.960;8.018;2024-01-10T02:24:28;1.20;90.20
6988;DHT22;3534;49.960;8.018;2024-01-10T02:26:55;1.20;90.30
6988;DHT22;3534;49.960;8.018;2024-01-10T02:29:22;1.30;90.20
6988;DHT22;3534;49.960;8.018;2024-01-10T02:31:49;1.30;90.30
6988;DHT22;3534;49.960;8.018;2024-01-10T02:34:16;1.30;90.50
6988;DHT22;3534;49.960;8.018;2024-01-10T02:36:43;1.30;90.60
6988;DHT22;3534;49.960;8.018;2024-01-10T02:39:09;1.30;91.00
6988;DHT22;3534;49.960;8.018;2024-01-10T02:41:36;1.30;90.70
6988;DHT22;3534;49.960;8.018;2024-01-10T02:44:04;1.20;90.90
6988;DHT22;3534;49.960;8.018;2024-01-10T02:46:31;1.20;90.70
6988;DHT22;3534;49.960;8.018;2024-01-10T02:48:57;1.20;91.20
6988;DHT22;3534;49.960;8.018;2024-01-10T02:51:27;1.10;91.70
6988;DHT22;3534;49.960;8.018;2024-01-10T02:53:55;1.10;91.50
6988;DHT22;3534;49.960;8.018;2024-01-10T02:56:22;1.10;91.60
6988;DHT22;3534;49.960;8.018;2024-01-10T02:58:48;1.10;91.70
6988;DHT22;3534;49.960;8.018;2024-01-10T03:01:16;1.10;91.80
6988;DHT22;3534;49.960;8.018;2024-01-10T03:03:43;1.10;91.90
6988;DHT22;3534;49.960;8.018;2024-01-10T03:06:10;1.10;92.00
6988;DHT22;3534;49.960;8.018;2024-01-10T03:08:36;1.10;92.10
6988;DHT22;3534;49.960;8.018;2024-01-10T03:11:03;1.10;92.10
6988;DHT22;3534;49.960;8.018;2024-01-10T03:13:30;1.10;92.20
6988;DHT22;3534;49.960;8.018;2024-01-10T03:15:57;1.00;92.30
6988;DHT22;3534;49.960;8.018;2024-01-10T03:18:25;0.90;92.50
6988;DHT22;3534;49.960;8.018;2024-01-10T03:20:51;0.90;92.70
6988;DHT22;3534;49.960;8.018;2024-01-10T03:23:18;0.80;93.20
6988;DHT22;3534;49.960;8.018;2024-01-10T03:25:45;0.80;93.60
6988;DHT22;3534;49.960;8.018;2024-01-10T03:28:15;0.60;93.70
6988;DHT22;3534;49.960;8.018;2024-01-10T03:30:42;0.40;94.30
6988;DHT22;3534;49.960;8.018;2024-01-10T03:33:09;0.20;95.10
6988;DHT22;3534;49.960;8.018;2024-01-10T03:35:37;0.10;95.30
6988;DHT22;3534;49.960;8.018;2024-01-10T03:38:04;-0.10;96.40
6988;DHT22;3534;49.960;8.018;2024-01-10T03:40:30;-0.30;97.20
6988;DHT22;3534;49.960;8.018;2024-01-10T03:42:57;-0.20;97.10
6988;DHT22;3534;49.960;8.018;2024-01-10T03:45:24;-0.10;97.00
6988;DHT22;3534;49.960;8.018;2024-01-10T03:47:51;0.00;96.80
6988;DHT22;3534;49.960;8.018;2024-01-10T03:50:18;0.10;96.80
6988;DHT22;3534;49.960;8.018;2024-01-10T03:52:47;0.10;96.80
6988;DHT22;3534;49.960;8.018;2024-01-10T03:55:13;0.10;99.10
6988;DHT22;3534;49.960;8.018;2024-01-10T03:57:40;0.20;98.80
6988;DHT22;3534;49.960;8.018;2024-01-10T04:00:08;0.20;98.40
6988;DHT22;3534;49.960;8.018;2024-01-10T04:02:36;0.30;98.60
6988;DHT22;3534;49.960;8.018;2024-01-10T04:05:05;0.30;99.20
6988;DHT22;3534;49.960;8.018;2024-01-10T04:07:31;0.40;99.60
6988;DHT22;3534;49.960;8.018;2024-01-10T04:10:00;0.50;99.20
6988;DHT22;3534;49.960;8.018;2024-01-10T04:12:26;0.50;99.00
6988;DHT22;3534;49.960;8.018;2024-01-10T04:14:53;0.50;99.20
6988;DHT22;3534;49.960;8.018;2024-01-10T04:17:19;0.60;99.70
6988;DHT22;3534;49.960;8.018;2024-01-10T04:19:46;0.60;99.80
6988;DHT22;3534;49.960;8.018;2024-01-10T04:22:13;0.50;99.90
6988;DHT22;3534;49.960;8.018;2024-01-10T04:24:40;0.60;99.90
6988;DHT22;3534;49.960;8.018;2024-01-10T04:27:08;0.50;99.90
6988;DHT22;3534;49.960;8.018;2024-01-10T04:29:34;0.60;99.90
6988;DHT22;3534;49.960;8.018;2024-01-10T04:32:01;0.50;99.90
6988;DHT22;3534;49.960;8.018;2024-01-10T04:34:27;0.60;99.90
6988;DHT22;3534;49.960;8.018;2024-01-10T04:36:54;0.60;99.90
6988;DHT22;3534;49.960;8.018;2024-01-10T04:39:21;0.60;99.90
6988;DHT22;3534;49.960;8.018;2024-01-10T04:41:48;0.70;99.90
6988;DHT22;3534;49.960;8.018;2024-01-10T04:44:16;0.70;99.90
6988;DHT22;3534;49.960;8.018;2024-01-10T04:46:43;0.70;99.90
6988;DHT22;3534;49.960;8.018;2024-01-10T04:49:09;0.80;99.90
6988;DHT22;3534;49.960;8.018;2024-01-10T04:51:36;0.80;99.90
6988;DHT22;3534;49.960;8.018;2024-01-10T04:54:03;0.80;99.90
6988;DHT22;3534;49.960;8.018;2024-01-10T04:56:29;0.80;99.90
6988;DHT22;3534;49.960;8.018;2024-01-10T04:58:56;0.80;99.90
6988;DHT22;3534;49.960;8.018;2024-01-10T05:01:24;0.80;99.90
6988;DHT22;3534;49.960;8.018;2024-01-10T05:03:51;0.80;99.90
6988;DHT22;3534;49.960;8.018;2024-01-10T05:06:17;0.80;99.90
6988;DHT22;3534;49.960;8.018;2024-01-10T05:08:44;0.80;99.90
6988;DHT22;3534;49.960;8.018;2024-01-10T05:11:11;0.80;99.90
6988;DHT22;3534;49.960;8.018;2024-01-10T05:13:38;0.80;99.90
6988;DHT22;3534;49.960;8.018;2024-01-10T05:16:05;0.80;99.90
6988;DHT22;3534;49.960;8.018;2024-01-10T05:18:33;0.80;99.90
6988;DHT22;3534;49.960;8.018;2024-01-10T05:21:00;0.80;99.90
6988;DHT22;3534;49.960;8.018;2024-01-10T05:23:27;0.80;99.90
6988;DHT22;3534;49.960;8.018;2024-01-10T05:25:54;0.80;99.90
6988;DHT22;3534;49.960;8.018;2024-01-10T05:28:20;0.90;99.90
6988;DHT22;3534;49.960;8.018;2024-01-10T05:30:47;0.90;99.90
6988;DHT22;3534;49.960;8.018;2024-01-10T05:33:14;0.80;99.60
6988;DHT22;3534;49.960;8.018;2024-01-10T05:35:42;0.70;99.90
6988;DHT22;3534;49.960;8.018;2024-01-10T05:38:09;0.70;99.90
6988;DHT22;3534;49.960;8.018;2024-01-10T05:40:35;0.80;99.60
6988;DHT22;3534;49.960;8.018;2024-01-10T05:43:02;0.80;99.30
6988;DHT22;3534;49.960;8.018;2024-01-10T05:45:29;0.80;99.30
6988;DHT22;3534;49.960;8.018;2024-01-10T05:47:56;0.80;99.40
6988;DHT22;3534;49.960;8.018;2024-01-10T05:50:23;0.80;99.00
6988;DHT22;3534;49.960;8.018;2024-01-10T05:52:51;0.80;99.10
6988;DHT22;3534;49.960;8.018;2024-01-10T05:55:18;0.80;98.90
6988;DHT22;3534;49.960;8.018;2024-01-10T06:00:14;0.90;99.10
6988;DHT22;3534;49.960;8.018;2024-01-10T06:02:43;0.90;99.10
6988;DHT22;3534;49.960;8.018;2024-01-10T06:05:10;0.90;98.90
6988;DHT22;3534;49.960;8.018;2024-01-10T06:07:37;0.90;98.80
6988;DHT22;3534;49.960;8.018;2024-01-10T06:10:06;1.00;98.90
6988;DHT22;3534;49.960;8.018;2024-01-10T06:12:33;0.90;98.80
6988;DHT22;3534;49.960;8.018;2024-01-10T06:15:00;0.90;99.10
6988;DHT22;3534;49.960;8.018;2024-01-10T06:17:26;0.80;99.40
6988;DHT22;3534;49.960;8.018;2024-01-10T06:19:53;0.70;99.40
6988;DHT22;3534;49.960;8.018;2024-01-10T06:22:20;0.60;99.10
6988;DHT22;3534;49.960;8.018;2024-01-10T06:24:50;0.60;99.90
6988;DHT22;3534;49.960;8.018;2024-01-10T06:27:18;0.60;99.90
6988;DHT22;3534;49.960;8.018;2024-01-10T06:29:45;0.60;99.90
6988;DHT22;3534;49.960;8.018;2024-01-10T06:32:11;0.50;99.90
6988;DHT22;3534;49.960;8.018;2024-01-10T06:34:39;0.20;99.90
6988;DHT22;3534;49.960;8.018;2024-01-10T06:37:06;0.00;99.90
6988;DHT22;3534;49.960;8.018;2024-01-10T06:39:33;0.00;99.90
6988;DHT22;3534;49.960;8.018;2024-01-10T06:42:00;0.00;99.90
6988;DHT22;3534;49.960;8.018;2024-01-10T06:44:30;0.00;99.90
6988;DHT22;3534;49.960;8.018;2024-01-10T06:46:57;0.20;99.90
6988;DHT22;3534;49.960;8.018;2024-01-10T06:49:23;0.20;99.90
6988;DHT22;3534;49.960;8.018;2024-01-10T06:51:50;0.30;99.90
6988;DHT22;3534;49.960;8.018;2024-01-10T06:54:17;0.30;99.90
6988;DHT22;3534;49.960;8.018;2024-01-10T06:56:44;0.40;99.90
6988;DHT22;3534;49.960;8.018;2024-01-10T06:59:11;0.40;99.90
6988;DHT22;3534;49.960;8.018;2024-01-10T07:01:39;0.40;99.90
6988;DHT22;3534;49.960;8.018;2024-01-10T07:04:06;0.40;99.90
6988;DHT22;3534;49.960;8.018;2024-01-10T07:06:33;0.40;99.90
6988;DHT22;3534;49.960;8.018;2024-01-10T07:08:59;0.50;99.90
6988;DHT22;3534;49.960;8.018;2024-01-10T07:11:26;0.50;99.90
6988;DHT22;3534;49.960;8.018;2024-01-10T07:13:54;0.50;99.90
6988;DHT22;3534;49.960;8.018;2024-01-10T07:16:21;0.50;99.90
6988;DHT22;3534;49.960;8.018;2024-01-10T07:18:49;0.50;99.90
6988;DHT22;3534;49.960;8.018;2024-01-10T07:21:16;0.60;99.90
6988;DHT22;3534;49.960;8.018;2024-01-10T07:23:43;0.60;99.90
6988;DHT22;3534;49.960;8.018;2024-01-10T07:26:12;0.70;99.90
6988;DHT22;3534;49.960;8.018;2024-01-10T07:28:39;0.70;99.90
6988;DHT22;3534;49.960;8.018;2024-01-10T07:31:07;0.80;99.90
6988;DHT22;3534;49.960;8.018;2024-01-10T07:33:33;0.80;99.90
6988;DHT22;3534;49.960;8.018;2024-01-10T07:36:02;0.80;99.90
6988;DHT22;3534;49.960;8.018;2024-01-10T07:38:29;0.80;99.90
6988;DHT22;3534;49.960;8.018;2024-01-10T07:40:56;0.90;99.90
6988;DHT22;3534;49.960;8.018;2024-01-10T07:43:24;0.80;99.90
6988;DHT22;3534;49.960;8.018;2024-01-10T07:45:52;0.90;99.90
6988;DHT22;3534;49.960;8.018;2024-01-10T07:48:19;0.90;99.90
6988;DHT22;3534;49.960;8.018;2024-01-10T07:50:46;0.90;99.90
6988;DHT22;3534;49.960;8.018;2024-01-10T07:53:14;0.90;99.90
6988;DHT22;3534;49.960;8.018;2024-01-10T07:55:40;0.90;99.90
6988;DHT22;3534;49.960;8.018;2024-01-10T07:58:07;1.00;99.90
6988;DHT22;3534;49.960;8.018;2024-01-10T08:00:34;0.90;99.90
6988;DHT22;3534;49.960;8.018;2024-01-10T08:03:00;1.00;99.90
6988;DHT22;3534;49.960;8.018;2024-01-10T08:05:27;1.00;99.90
6988;DHT22;3534;49.960;8.018;2024-01-10T08:07:54;1.00;99.90
6988;DHT22;3534;49.960;8.018;2024-01-10T08:10:23;1.00;99.90
6988;DHT22;3534;49.960;8.018;2024-01-10T08:12:50;1.00;99.90
6988;DHT22;3534;49.960;8.018;2024-01-10T08:15:18;1.10;99.90
6988;DHT22;3534;49.960;8.018;2024-01-10T08:17:45;1.10;99.90
6988;DHT22;3534;49.960;8.018;2024-01-10T08:20:12;1.10;99.90
6988;DHT22;3534;49.960;8.018;2024-01-10T08:22:40;1.10;99.90
6988;DHT22;3534;49.960;8.018;2024-01-10T08:25:09;1.20;99.90
6988;DHT22;3534;49.960;8.018;2024-01-10T08:27:37;1.20;99.90
6988;DHT22;3534;49.960;8.018;2024-01-10T08:30:04;1.20;99.90
6988;DHT22;3534;49.960;8.018;2024-01-10T08:32:35;1.20;99.90
6988;DHT22;3534;49.960;8.018;2024-01-10T08:35:02;1.20;99.90
6988;DHT22;3534;49.960;8.018;2024-01-10T08:37:30;1.20;99.90
6988;DHT22;3534;49.960;8.018;2024-01-10T08:39:58;1.30;99.90
6988;DHT22;3534;49.960;8.018;2024-01-10T08:42:26;1.30;99.90
6988;DHT22;3534;49.960;8.018;2024-01-10T08:44:54;1.20;99.90
6988;DHT22;3534;49.960;8.018;2024-01-10T08:47:21;1.30;99.90
6988;DHT22;3534;49.960;8.018;2024-01-10T08:49:48;1.30;99.90
6988;DHT22;3534;49.960;8.018;2024-01-10T08:52:14;1.30;99.90
6988;DHT22;3534;49.960;8.018;2024-01-10T08:54:41;1.30;99.90
6988;DHT22;3534;49.960;8.018;2024-01-10T08:57:08;1.40;99.90
6988;DHT22;3534;49.960;8.018;2024-01-10T08:59:34;1.30;99.90
6988;DHT22;3534;49.960;8.018;2024-01-10T09:02:03;1.40;99.90
6988;DHT22;3534;49.960;8.018;2024-01-10T09:04:29;1.40;99.90
6988;DHT22;3534;49.960;8.018;2024-01-10T09:06:56;1.40;99.90
6988;DHT22;3534;49.960;8.018;2024-01-10T09:09:23;1.40;99.90
6988;DHT22;3534;49.960;8.018;2024-01-10T09:11:49;1.40;99.90
6988;DHT22;3534;49.960;8.018;2024-01-10T09:14:16;1.50;99.90
6988;DHT22;3534;49.960;8.018;2024-01-10T09:16:43;1.50;99.90
6988;DHT22;3534;49.960;8.018;2024-01-10T09:19:11;1.60;99.90
6988;DHT22;3534;49.960;8.018;2024-01-10T09:21:38;1.60;99.90
6988;DHT22;3534;49.960;8.018;2024-01-10T09:24:05;1.60;99.90
6988;DHT22;3534;49.960;8.018;2024-01-10T09:26:36;1.60;99.90
6988;DHT22;3534;49.960;8.018;2024-01-10T09:29:03;1.60;99.90
6988;DHT22;3534;49.960;8.018;2024-01-10T09:31:31;1.60;99.90
6988;DHT22;3534;49.960;8.018;2024-01-10T09:33:58;1.70;99.90
6988;DHT22;3534;49.960;8.018;2024-01-10T09:36:26;1.80;99.90
6988;DHT22;3534;49.960;8.018;2024-01-10T09:38:52;1.90;99.90
6988;DHT22;3534;49.960;8.018;2024-01-10T09:41:19;1.90;99.90
6988;DHT22;3534;49.960;8.018;2024-01-10T09:43:46;2.00;99.90
6988;DHT22;3534;49.960;8.018;2024-01-10T09:46:13;2.00;99.90
6988;DHT22;3534;49.960;8.018;2024-01-10T09:48:43;2.10;99.90
6988;DHT22;3534;49.960;8.018;2024-01-10T09:51:10;2.10;99.90
6988;DHT22;3534;49.960;8.018;2024-01-10T09:53:42;2.20;99.90
6988;DHT22;3534;49.960;8.018;2024-01-10T09:56:10;2.20;99.90
6988;DHT22;3534;49.960;8.018;2024-01-10T09:58:37;2.20;99.90
6988;DHT22;3534;49.960;8.018;2024-01-10T10:01:06;2.30;99.60
6988;DHT22;3534;49.960;8.018;2024-01-10T10:03:36;2.30;99.90
6988;DHT22;3534;49.960;8.018;2024-01-10T10:06:03;2.30;99.70
6988;DHT22;3534;49.960;8.018;2024-01-10T10:08:30;2.40;99.70
6988;DHT22;3534;49.960;8.018;2024-01-10T10:10:58;2.30;99.20
6988;DHT22;3534;49.960;8.018;2024-01-10T10:13:25;2.40;99.90
6988;DHT22;3534;49.960;8.018;2024-01-10T10:15:59;2.40;99.90
6988;DHT22;3534;49.960;8.018;2024-01-10T10:18:26;2.40;98.40
6988;DHT22;3534;49.960;8.018;2024-01-10T10:21:08;2.40;99.10
6988;DHT22;3534;49.960;8.018;2024-01-10T10:23:35;2.40;99.80
6988;DHT22;3534;49.960;8.018;2024-01-10T10:26:12;2.50;98.80
6988;DHT22;3534;49.960;8.018;2024-01-10T10:28:40;2.50;99.50
6988;DHT22;3534;49.960;8.018;2024-01-10T10:31:07;2.50;99.10
6988;DHT22;3534;49.960;8.018;2024-01-10T10:33:34;2.60;98.60
6988;DHT22;3534;49.960;8.018;2024-01-10T10:36:01;2.60;98.40
6988;DHT22;3534;49.960;8.018;2024-01-10T10:38:28;2.70;99.90
6988;DHT22;3534;49.960;8.018;2024-01-10T10:40:55;2.70;99.90
6988;DHT22;3534;49.960;8.018;2024-01-10T10:43:26;2.70;98.90
6988;DHT22;3534;49.960;8.018;2024-01-10T10:45:54;2.80;99.50
6988;DHT22;3534;49.960;8.018;2024-01-10T10:48:22;2.80;98.40
6988;DHT22;3534;49.960;8.018;2024-01-10T10:50:53;2.90;97.00
6988;DHT22;3534;49.960;8.018;2024-01-10T10:53:22;3.00;97.70
6988;DHT22;3534;49.960;8.018;2024-01-10T10:55:52;3.00;98.10
6988;DHT22;3534;49.960;8.018;2024-01-10T10:58:19;3.10;98.00
6988;DHT22;3534;49.960;8.018;2024-01-10T11:00:49;3.10;97.60
6988;DHT22;3534;49.960;8.018;2024-01-10T11:03:17;3.10;97.10
6988;DHT22;3534;49.960;8.018;2024-01-10T11:05:45;3.10;99.90
6988;DHT22;3534;49.960;8.018;2024-01-10T11:08:15;3.10;99.90
6988;DHT22;3534;49.960;8.018;2024-01-10T11:10:43;3.20;99.90
6988;DHT22;3534;49.960;8.018;2024-01-10T11:13:26;3.30;99.90
6988;DHT22;3534;49.960;8.018;2024-01-10T11:16:20;3.40;99.90
6988;DHT22;3534;49.960;8.018;2024-01-10T11:19:04;3.40;99.80
6988;DHT22;3534;49.960;8.018;2024-01-10T11:21:42;3.50;97.00
6988;DHT22;3534;49.960;8.018;2024-01-10T11:24:11;3.70;97.00
6988;DHT22;3534;49.960;8.018;2024-01-10T11:26:38;3.80;98.90
6988;DHT22;3534;49.960;8.018;2024-01-10T11:29:05;3.90;96.20
6988;DHT22;3534;49.960;8.018;2024-01-10T11:31:33;4.10;95.20
6988;DHT22;3534;49.960;8.018;2024-01-10T11:34:01;4.20;95.30
6988;DHT22;3534;49.960;8.018;2024-01-10T11:36:28;4.40;99.90
6988;DHT22;3534;49.960;8.018;2024-01-10T11:38:58;4.50;99.90
6988;DHT22;3534;49.960;8.018;2024-01-10T11:41:28;4.70;99.90
6988;DHT22;3534;49.960;8.018;2024-01-10T11:44:29;4.80;97.70
6988;DHT22;3534;49.960;8.018;2024-01-10T11:46:58;4.90;99.60
6988;DHT22;3534;49.960;8.018;2024-01-10T11:49:26;5.00;99.50
6988;DHT22;3534;49.960;8.018;2024-01-10T11:51:54;5.10;99.80
6988;DHT22;3534;49.960;8.018;2024-01-10T11:54:38;5.10;99.90
6988;DHT22;3534;49.960;8.018;2024-01-10T11:57:08;5.20;99.10
6988;DHT22;3534;49.960;8.018;2024-01-10T11:59:37;5.30;99.90
6988;DHT22;3534;49.960;8.018;2024-01-10T12:02:06;5.50;99.90
6988;DHT22;3534;49.960;8.018;2024-01-10T12:04:33;5.50;99.90
6988;DHT22;3534;49.960;8.018;2024-01-10T12:07:01;5.60;99.90
6988;DHT22;3534;49.960;8.018;2024-01-10T12:09:28;5.80;99.90
6988;DHT22;3534;49.960;8.018;2024-01-10T12:11:55;6.00;99.90
6988;DHT22;3534;49.960;8.018;2024-01-10T12:14:22;6.10;99.90
6988;DHT22;3534;49.960;8.018;2024-01-10T12:16:51;6.30;99.90
6988;DHT22;3534;49.960;8.018;2024-01-10T12:19:19;6.50;99.90
6988;DHT22;3534;49.960;8.018;2024-01-10T12:21:46;6.70;99.90
6988;DHT22;3534;49.960;8.018;2024-01-10T12:24:13;6.90;99.90
6988;DHT22;3534;49.960;8.018;2024-01-10T12:26:43;7.10;99.90
6988;DHT22;3534;49.960;8.018;2024-01-10T12:29:10;7.20;99.90
6988;DHT22;3534;49.960;8.018;2024-01-10T12:31:38;7.40;99.90
6988;DHT22;3534;49.960;8.018;2024-01-10T12:34:07;7.50;99.90
6988;DHT22;3534;49.960;8.018;2024-01-10T12:36:35;7.70;99.90
6988;DHT22;3534;49.960;8.018;2024-01-10T12:39:02;7.90;99.90
6988;DHT22;3534;49.960;8.018;2024-01-10T12:41:29;8.00;99.90
6988;DHT22;3534;49.960;8.018;2024-01-10T12:43:59;8.20;99.90
6988;DHT22;3534;49.960;8.018;2024-01-10T12:46:29;8.30;99.90
6988;DHT22;3534;49.960;8.018;2024-01-10T12:48:59;8.40;99.90
6988;DHT22;3534;49.960;8.018;2024-01-10T12:51:28;8.50;99.90
6988;DHT22;3534;49.960;8.018;2024-01-10T12:53:57;8.60;99.90
6988;DHT22;3534;49.960;8.018;2024-01-10T12:56:25;8.70;99.90
6988;DHT22;3534;49.960;8.018;2024-01-10T12:58:52;8.90;99.90
6988;DHT22;3534;49.960;8.018;2024-01-10T13:01:20;8.80;99.90
6988;DHT22;3534;49.960;8.018;2024-01-10T13:03:47;8.90;99.90
6988;DHT22;3534;49.960;8.018;2024-01-10T13:06:15;8.90;99.80
6988;DHT22;3534;49.960;8.018;2024-01-10T13:08:42;9.00;99.90
6988;DHT22;3534;49.960;8.018;2024-01-10T13:11:10;9.10;99.90
6988;DHT22;3534;49.960;8.018;2024-01-10T13:13:39;9.20;99.90
6988;DHT22;3534;49.960;8.018;2024-01-10T13:16:06;9.30;99.90
6988;DHT22;3534;49.960;8.018;2024-01-10T13:18:36;9.30;94.80
6988;DHT22;3534;49.960;8.018;2024-01-10T13:21:02;9.30;99.90
6988;DHT22;3534;49.960;8.018;2024-01-10T13:23:29;9.30;99.90
6988;DHT22;3534;49.960;8.018;2024-01-10T13:25:56;9.40;99.90
6988;DHT22;3534;49.960;8.018;2024-01-10T13:28:25;9.40;99.90
6988;DHT22;3534;49.960;8.018;2024-01-10T13:30:53;9.30;97.40
6988;DHT22;3534;49.960;8.018;2024-01-10T13:33:21;9.30;99.90
6988;DHT22;3534;49.960;8.018;2024-01-10T13:35:48;9.10;99.90
6988;DHT22;3534;49.960;8.018;2024-01-10T13:38:16;9.00;99.90
6988;DHT22;3534;49.960;8.018;2024-01-10T13:40:43;8.80;97.60
6988;DHT22;3534;49.960;8.018;2024-01-10T13:43:09;8.60;94.80
6988;DHT22;3534;49.960;8.018;2024-01-10T13:45:37;8.30;95.80
6988;DHT22;3534;49.960;8.018;2024-01-10T13:48:04;8.20;99.90
6988;DHT22;3534;49.960;8.018;2024-01-10T13:50:31;8.00;97.10
6988;DHT22;3534;49.960;8.018;2024-01-10T13:52:58;7.80;93.70
6988;DHT22;3534;49.960;8.018;2024-01-10T13:55:24;7.60;96.70
6988;DHT22;3534;49.960;8.018;2024-01-10T13:57:51;7.40;99.90
6988;DHT22;3534;49.960;8.018;2024-01-10T14:00:19;7.20;99.90
6988;DHT22;3534;49.960;8.018;2024-01-10T14:02:48;7.30;99.90
6988;DHT22;3534;49.960;8.018;2024-01-10T14:05:15;7.30;99.90
6988;DHT22;3534;49.960;8.018;2024-01-10T14:07:41;7.30;99.90
6988;DHT22;3534;49.960;8.018;2024-01-10T14:10:10;7.20;99.90
6988;DHT22;3534;49.960;8.018;2024-01-10T14:12:38;7.10;99.90
6988;DHT22;3534;49.960;8.018;2024-01-10T14:15:06;7.20;99.90
6988;DHT22;3534;49.960;8.018;2024-01-10T14:17:33;7.30;99.90
6988;DHT22;3534;49.960;8.018;2024-01-10T14:20:02;7.40;99.90
6988;DHT22;3534;49.960;8.018;2024-01-10T14:22:28;7.60;99.90
6988;DHT22;3534;49.960;8.018;2024-01-10T14:24:55;7.90;99.90
6988;DHT22;3534;49.960;8.018;2024-01-10T14:27:22;8.00;99.90
6988;DHT22;3534;49.960;8.018;2024-01-10T14:29:50;8.10;99.90
6988;DHT22;3534;49.960;8.018;2024-01-10T14:32:16;8.20;99.90
6988;DHT22;3534;49.960;8.018;2024-01-10T14:34:43;8.40;99.90
6988;DHT22;3534;49.960;8.018;2024-01-10T14:37:13;8.50;99.90
6988;DHT22;3534;49.960;8.018;2024-01-10T14:39:40;8.60;99.90
6988;DHT22;3534;49.960;8.018;2024-01-10T14:42:07;8.70;99.90
6988;DHT22;3534;49.960;8.018;2024-01-10T14:44:34;8.90;99.90
6988;DHT22;3534;49.960;8.018;2024-01-10T14:47:01;8.90;99.90
6988;DHT22;3534;49.960;8.018;2024-01-10T14:49:29;8.90;99.90
6988;DHT22;3534;49.960;8.018;2024-01-10T14:51:56;8.80;99.90
6988;DHT22;3534;49.960;8.018;2024-01-10T14:54:24;8.80;99.90
6988;DHT22;3534;49.960;8.018;2024-01-10T14:56:51;8.70;96.90
6988;DHT22;3534;49.960;8.018;2024-01-10T14:59:18;8.60;93.40
6988;DHT22;3534;49.960;8.018;2024-01-10T15:01:44;8.50;92.00
6988;DHT22;3534;49.960;8.018;2024-01-10T15:04:12;8.30;92.00
6988;DHT22;3534;49.960;8.018;2024-01-10T15:06:42;8.10;91.70
6988;DHT22;3534;49.960;8.018;2024-01-10T15:09:09;7.90;91.60
6988;DHT22;3534;49.960;8.018;2024-01-10T15:11:39;7.70;92.90
6988;DHT22;3534;49.960;8.018;2024-01-10T15:14:07;7.60;92.80
6988;DHT22;3534;49.960;8.018;2024-01-10T15:16:34;7.50;92.90
6988;DHT22;3534;49.960;8.018;2024-01-10T15:19:01;7.40;94.20
6988;DHT22;3534;49.960;8.018;2024-01-10T15:21:28;7.40;92.40
6988;DHT22;3534;49.960;8.018;2024-01-10T15:23:55;7.40;91.60
6988;DHT22;3534;49.960;8.018;2024-01-10T15:26:22;7.20;90.90
6988;DHT22;3534;49.960;8.018;2024-01-10T15:28:50;7.10;90.60
6988;DHT22;3534;49.960;8.018;2024-01-10T15:31:20;7.00;91.00
6988;DHT22;3534;49.960;8.018;2024-01-10T15:33:46;6.90;90.90
6988;DHT22;3534;49.960;8.018;2024-01-10T15:36:14;6.80;91.40
6988;DHT22;3534;49.960;8.018;2024-01-10T15:38:41;6.60;91.00
6988;DHT22;3534;49.960;8.018;2024-01-10T15:41:08;6.50;91.10
6988;DHT22;3534;49.960;8.018;2024-01-10T15:43:36;6.30;90.70
6988;DHT22;3534;49.960;8.018;2024-01-10T15:46:04;6.10;91.00
6988;DHT22;3534;49.960;8.018;2024-01-10T15:48:32;6.10;91.50
6988;DHT22;3534;49.960;8.018;2024-01-10T15:50:59;6.00;91.20
6988;DHT22;3534;49.960;8.018;2024-01-10T15:53:26;5.90;91.60
6988;DHT22;3534;49.960;8.018;2024-01-10T15:55:54;5.80;93.50
6988;DHT22;3534;49.960;8.018;2024-01-10T15:58:23;5.90;99.90
6988;DHT22;3534;49.960;8.018;2024-01-10T16:00:50;5.80;99.90
6988;DHT22;3534;49.960;8.018;2024-01-10T16:03:18;5.70;98.60
6988;DHT22;3534;49.960;8.018;2024-01-10T16:05:45;5.70;95.60
6988;DHT22;3534;49.960;8.018;2024-01-10T16:08:13;5.60;96.70
6988;DHT22;3534;49.960;8.018;2024-01-10T16:10:41;5.60;95.00
6988;DHT22;3534;49.960;8.018;2024-01-10T16:13:08;5.60;94.50
6988;DHT22;3534;49.960;8.018;2024-01-10T16:15:35;5.50;94.20
6988;DHT22;3534;49.960;8.018;2024-01-10T16:18:02;5.50;94.50
6988;DHT22;3534;49.960;8.018;2024-01-10T16:20:30;5.40;94.00
6988;DHT22;3534;49.960;8.018;2024-01-10T16:22:56;5.30;94.20